Milwaukee, Wisconsin
Traffic Map
Current Weather Conditions
Milwaukee, Wisconsin
Broken Clouds
Broken Clouds
75°
Feels Like: 75°
Wind Chill: 75° Ceiling: 25000
Heat Index: 75° Visibility: 10mi
Dew Point: 68° Wind: 8mph
Humidity: 79% Direction: 250° (WSW)
Pressure: 30.02in Gusts: 0mph
Raw Report DataKMKE 302352Z 25007KT 10SM SCT110 SCT180 BKN250 24/20 A3002 RMK AO2 SLP162 60208 T02390200 10294 20206 57016
Traffic Incident Summary
Active as of:
Severity:
Category:
InformationThere was an issue retrieving the traffic information for this location. Please try a different location or try again shortly.
Advertisements
Track Severe Weather on mobile